Terminal Aerodrome Forecast
Issued by NWS

Home | Current Version | Previous Version | Text Only | Print | Product List | Glossary On
Versions: 1 2 3 4 5 6 7 8 9 10 11 12 13 14 15 16 17 18 19 20 21 22 23
000
FTUS41 KBOX 160539
TAFHYA
TAF
KHYA 160539Z 1606/1706 32010G22KT 3SM -RA BR OVC015
     FM161000 33017G29KT 5SM -SHRA OVC015
     FM161100 34017G30KT P6SM BKN070
     FM161400 35019G28KT P6SM SCT250
     FM162000 01015KT P6SM SKC
     FM162300 03009KT P6SM SKC=

USA.gov is the U.S. government's official web portal to all federal, state and local government web resources and services.